createdAt,value
2017-05-20T16:10:03.163Z,19.20
2017-05-20T16:12:46.935Z,19.20
2017-05-20T16:15:16.136Z,19.20
2017-05-20T16:17:45.011Z,19.20
2017-05-20T16:20:13.896Z,19.20
2017-05-20T16:22:43.115Z,19.00
2017-05-20T16:25:12.028Z,19.00
2017-05-20T16:27:40.978Z,18.80
2017-05-20T16:30:10.165Z,18.80
2017-05-20T16:32:39.238Z,18.70
2017-05-20T16:35:08.715Z,18.80
2017-05-20T16:37:38.046Z,18.70
2017-05-20T16:40:06.933Z,18.60
2017-05-20T16:42:35.835Z,18.70
2017-05-20T16:45:05.001Z,18.60
2017-05-20T16:47:33.892Z,18.70
2017-05-20T16:50:02.772Z,18.50
2017-05-20T16:52:31.212Z,18.50
2017-05-20T16:55:00.102Z,18.50
2017-05-20T16:57:29.009Z,18.50
2017-05-20T16:59:58.199Z,18.40
2017-05-20T17:02:27.105Z,18.40
2017-05-20T17:04:55.993Z,18.30
2017-05-20T17:07:25.245Z,18.40
2017-05-20T17:09:53.376Z,18.30
2017-05-20T17:12:22.260Z,18.40
2017-05-20T17:14:51.484Z,18.30
2017-05-20T17:17:20.385Z,18.20
2017-05-20T17:19:49.294Z,18.20
2017-05-20T17:22:18.568Z,18.20
2017-05-20T17:24:46.708Z,18.20
2017-05-20T17:27:15.791Z,18.20
2017-05-20T17:29:44.975Z,18.30
2017-05-20T17:32:13.879Z,18.30
2017-05-20T17:34:42.772Z,18.30
2017-05-20T17:37:12.053Z,18.30
2017-05-20T17:39:40.936Z,18.20
2017-05-20T17:42:09.827Z,18.10
2017-05-20T17:44:38.297Z,18.10
2017-05-20T17:47:07.181Z,18.30
2017-05-20T17:49:36.065Z,18.30
2017-05-20T17:52:05.318Z,18.30
2017-05-20T17:54:34.210Z,18.30
2017-05-20T17:57:03.102Z,18.40
2017-05-20T17:59:32.309Z,18.30
2017-05-20T18:02:01.199Z,18.10
2017-05-20T18:04:30.081Z,17.80
2017-05-20T18:06:59.331Z,17.50
2017-05-20T18:09:28.962Z,17.50
2017-05-20T18:11:57.849Z,17.40
2017-05-20T18:14:27.083Z,17.30
2017-05-20T18:16:56.072Z,17.30
2017-05-20T18:19:24.952Z,17.20
2017-05-20T18:21:54.322Z,17.10
2017-05-20T18:24:23.327Z,17.00
2017-05-20T18:26:52.229Z,16.80
2017-05-20T18:29:21.537Z,16.80
2017-05-20T18:31:50.435Z,16.80
2017-05-20T18:34:19.336Z,16.80
2017-05-20T18:36:48.529Z,16.70
2017-05-20T18:39:17.423Z,16.70
2017-05-20T18:41:46.327Z,16.70
2017-05-20T18:44:15.616Z,16.60
2017-05-20T18:46:43.782Z,16.50
2017-05-20T18:49:12.682Z,16.40
2017-05-20T18:51:41.865Z,16.40
2017-05-20T18:54:10.759Z,16.30
2017-05-20T18:56:39.651Z,16.30
2017-05-20T18:59:08.914Z,16.30
2017-05-20T19:01:37.806Z,16.20
2017-05-20T19:04:06.793Z,16.10
2017-05-20T19:06:35.985Z,16.00
2017-05-20T19:09:04.881Z,15.90
2017-05-20T19:11:33.773Z,15.90
2017-05-20T19:14:03.013Z,15.90
2017-05-20T19:16:31.898Z,15.80
2017-05-20T19:19:00.879Z,15.80
2017-05-20T19:21:30.051Z,15.80
2017-05-20T19:23:58.973Z,15.70
2017-05-20T19:26:27.875Z,15.80
2017-05-20T19:28:57.168Z,15.70
2017-05-20T19:31:26.040Z,15.70
2017-05-20T19:33:54.951Z,15.70
2017-05-20T19:36:24.230Z,15.60
2017-05-20T19:38:53.148Z,15.60
2017-05-20T19:41:22.027Z,15.50
2017-05-20T19:43:51.230Z,15.50
2017-05-20T19:46:20.127Z,15.40
2017-05-20T19:48:49.001Z,15.40
2017-05-20T19:51:18.182Z,15.40
2017-05-20T19:53:47.168Z,15.30
2017-05-20T19:56:16.131Z,15.30
2017-05-20T19:58:45.437Z,15.30
2017-05-20T20:01:14.344Z,15.20
2017-05-20T20:03:43.325Z,15.20
2017-05-20T20:06:12.658Z,15.20
2017-05-20T20:08:41.637Z,15.20
2017-05-20T20:11:11.223Z,15.20
2017-05-20T20:13:40.421Z,15.10
2017-05-20T20:16:09.318Z,15.10
2017-05-20T20:18:38.202Z,15.00
2017-05-20T20:21:06.657Z,15.00
2017-05-20T20:23:35.584Z,15.00
2017-05-20T20:26:04.560Z,15.00
2017-05-20T20:28:34.589Z,14.90
2017-05-20T20:31:03.544Z,14.90
2017-05-20T20:33:33.034Z,14.90
2017-05-20T20:36:02.298Z,14.80
2017-05-20T20:38:31.328Z,14.90
2017-05-20T20:41:00.378Z,14.80
2017-05-20T20:43:28.825Z,14.80
2017-05-20T20:45:57.918Z,14.80
2017-05-20T20:48:26.820Z,14.80
2017-05-20T20:50:55.282Z,14.70
2017-05-20T20:53:25.274Z,14.70
2017-05-20T20:55:53.432Z,14.70
2017-05-20T20:58:22.709Z,14.70
2017-05-20T21:00:51.613Z,14.60
2017-05-20T21:03:20.538Z,14.60
2017-05-20T21:05:49.819Z,14.70
2017-05-20T21:08:18.023Z,14.60
2017-05-20T21:10:46.940Z,14.70
2017-05-20T21:13:16.140Z,14.60
2017-05-20T21:15:44.267Z,14.60
2017-05-20T21:18:13.484Z,14.60
2017-05-20T21:20:42.770Z,14.50
2017-05-20T21:23:10.905Z,14.50
2017-05-20T21:25:39.819Z,14.50
2017-05-20T21:28:09.000Z,14.50
2017-05-20T21:30:37.910Z,14.40
2017-05-20T21:33:06.925Z,14.40
2017-05-20T21:35:36.126Z,14.40
2017-05-20T21:38:04.246Z,14.30
2017-05-20T21:40:33.146Z,14.30
2017-05-20T21:43:02.348Z,14.20
2017-05-20T21:45:31.238Z,14.20
2017-05-20T21:48:00.136Z,14.10
2017-05-20T21:50:29.426Z,14.10
2017-05-20T21:52:58.347Z,14.00
2017-05-20T21:55:26.496Z,14.00
2017-05-20T21:57:55.711Z,14.00
2017-05-20T22:00:24.640Z,14.00
2017-05-20T22:02:54.148Z,13.90
2017-05-20T22:05:23.390Z,14.00
2017-05-20T22:07:52.304Z,14.00
2017-05-20T22:10:20.431Z,14.00
2017-05-20T22:12:49.693Z,14.00
2017-05-20T22:15:18.608Z,14.00
2017-05-20T22:17:47.518Z,14.00
2017-05-20T22:20:16.747Z,13.90
2017-05-20T22:22:44.885Z,13.90
2017-05-20T22:25:13.807Z,13.90
2017-05-20T22:27:43.025Z,13.90
2017-05-20T22:30:11.949Z,13.80
2017-05-20T22:32:40.901Z,13.80
2017-05-20T22:35:10.150Z,13.80
2017-05-20T22:37:39.061Z,13.70
2017-05-20T22:40:08.039Z,13.70
2017-05-20T22:42:37.252Z,13.70
2017-05-20T22:45:06.171Z,13.60
2017-05-20T22:47:34.353Z,13.60
2017-05-20T22:50:03.617Z,13.60
2017-05-20T22:52:32.563Z,13.60
2017-05-20T22:55:01.565Z,13.60
2017-05-20T22:57:30.844Z,13.60
2017-05-20T22:59:59.791Z,13.50
2017-05-20T23:02:28.720Z,13.50
2017-05-20T23:04:57.971Z,13.40
2017-05-20T23:07:26.870Z,13.50
2017-05-20T23:09:55.858Z,13.60
2017-05-20T23:12:25.053Z,13.50
2017-05-20T23:14:53.990Z,13.50
2017-05-20T23:17:22.910Z,13.40
2017-05-20T23:19:52.215Z,13.50
2017-05-20T23:22:21.118Z,13.50
2017-05-20T23:24:50.138Z,13.40
2017-05-20T23:27:19.458Z,13.40
2017-05-20T23:29:48.408Z,13.40
2017-05-20T23:32:17.539Z,13.40
2017-05-20T23:34:46.724Z,13.40
2017-05-20T23:37:15.746Z,13.40
2017-05-20T23:39:44.699Z,13.40
2017-05-20T23:42:13.999Z,13.40
2017-05-20T23:44:42.911Z,13.30
2017-05-20T23:47:11.805Z,13.30
2017-05-20T23:49:41.115Z,13.30
2017-05-20T23:52:10.022Z,13.30
2017-05-20T23:54:38.928Z,13.30
2017-05-20T23:57:08.314Z,13.30
2017-05-20T23:59:37.231Z,13.20
